sensor_id;sensor_type;location;lat;lon;timestamp;P1;durP1;ratioP1;P2;durP2;ratioP2
79137;SDS011;68544;45.566;10.238;2023-08-17T00:00:02;5.53;;;5.03;;
79137;SDS011;68544;45.566;10.238;2023-08-17T00:02:29;7.47;;;5.72;;
79137;SDS011;68544;45.566;10.238;2023-08-17T00:04:55;6.55;;;5.93;;
79137;SDS011;68544;45.566;10.238;2023-08-17T00:07:20;8.25;;;6.20;;
79137;SDS011;68544;45.566;10.238;2023-08-17T00:09:46;6.38;;;5.80;;
79137;SDS011;68544;45.566;10.238;2023-08-17T00:12:11;6.72;;;5.78;;
79137;SDS011;68544;45.566;10.238;2023-08-17T00:14:36;6.20;;;5.70;;
79137;SDS011;68544;45.566;10.238;2023-08-17T00:17:02;7.25;;;6.40;;
79137;SDS011;68544;45.566;10.238;2023-08-17T00:19:28;6.60;;;6.00;;
79137;SDS011;68544;45.566;10.238;2023-08-17T00:21:53;7.60;;;6.72;;
79137;SDS011;68544;45.566;10.238;2023-08-17T00:24:20;6.88;;;6.18;;
79137;SDS011;68544;45.566;10.238;2023-08-17T00:26:45;6.82;;;6.20;;
79137;SDS011;68544;45.566;10.238;2023-08-17T00:29:11;6.80;;;6.03;;
79137;SDS011;68544;45.566;10.238;2023-08-17T00:31:36;8.32;;;6.47;;
79137;SDS011;68544;45.566;10.238;2023-08-17T00:34:02;7.85;;;6.00;;
79137;SDS011;68544;45.566;10.238;2023-08-17T00:36:27;6.95;;;6.10;;
79137;SDS011;68544;45.566;10.238;2023-08-17T00:38:53;6.45;;;5.80;;
79137;SDS011;68544;45.566;10.238;2023-08-17T00:41:18;6.93;;;6.32;;
79137;SDS011;68544;45.566;10.238;2023-08-17T00:43:43;6.53;;;5.90;;
79137;SDS011;68544;45.566;10.238;2023-08-17T00:46:09;6.28;;;5.75;;
79137;SDS011;68544;45.566;10.238;2023-08-17T00:48:36;5.80;;;5.30;;
79137;SDS011;68544;45.566;10.238;2023-08-17T00:51:01;6.60;;;5.95;;
79137;SDS011;68544;45.566;10.238;2023-08-17T00:53:27;7.60;;;6.15;;
79137;SDS011;68544;45.566;10.238;2023-08-17T00:55:56;6.32;;;5.70;;
79137;SDS011;68544;45.566;10.238;2023-08-17T00:58:22;6.38;;;5.88;;
79137;SDS011;68544;45.566;10.238;2023-08-17T01:00:47;8.30;;;6.03;;
79137;SDS011;68544;45.566;10.238;2023-08-17T01:03:13;6.40;;;5.80;;
79137;SDS011;68544;45.566;10.238;2023-08-17T01:05:39;6.32;;;5.80;;
79137;SDS011;68544;45.566;10.238;2023-08-17T01:08:05;8.25;;;6.40;;
79137;SDS011;68544;45.566;10.238;2023-08-17T01:10:32;6.85;;;6.22;;
79137;SDS011;68544;45.566;10.238;2023-08-17T01:13:09;8.40;;;6.03;;
79137;SDS011;68544;45.566;10.238;2023-08-17T01:15:49;6.63;;;6.03;;
79137;SDS011;68544;45.566;10.238;2023-08-17T01:18:21;6.57;;;5.95;;
79137;SDS011;68544;45.566;10.238;2023-08-17T01:20:50;6.10;;;5.35;;
79137;SDS011;68544;45.566;10.238;2023-08-17T01:23:18;7.13;;;5.75;;
79137;SDS011;68544;45.566;10.238;2023-08-17T01:25:43;6.20;;;5.60;;
79137;SDS011;68544;45.566;10.238;2023-08-17T01:28:09;6.38;;;5.78;;
79137;SDS011;68544;45.566;10.238;2023-08-17T01:30:39;6.13;;;5.63;;
79137;SDS011;68544;45.566;10.238;2023-08-17T01:33:08;6.53;;;5.93;;
79137;SDS011;68544;45.566;10.238;2023-08-17T01:35:37;6.07;;;5.57;;
79137;SDS011;68544;45.566;10.238;2023-08-17T01:38:07;6.70;;;6.00;;
79137;SDS011;68544;45.566;10.238;2023-08-17T01:40:36;6.10;;;5.50;;
79137;SDS011;68544;45.566;10.238;2023-08-17T01:43:02;6.70;;;6.10;;
79137;SDS011;68544;45.566;10.238;2023-08-17T01:45:28;6.55;;;5.95;;
79137;SDS011;68544;45.566;10.238;2023-08-17T01:47:57;7.03;;;6.32;;
79137;SDS011;68544;45.566;10.238;2023-08-17T01:50:22;7.05;;;6.15;;
79137;SDS011;68544;45.566;10.238;2023-08-17T01:52:48;6.97;;;6.30;;
79137;SDS011;68544;45.566;10.238;2023-08-17T01:55:15;8.55;;;6.88;;
79137;SDS011;68544;45.566;10.238;2023-08-17T01:57:40;7.03;;;6.40;;
79137;SDS011;68544;45.566;10.238;2023-08-17T02:00:06;8.63;;;5.90;;
79137;SDS011;68544;45.566;10.238;2023-08-17T02:02:32;7.03;;;6.10;;
79137;SDS011;68544;45.566;10.238;2023-08-17T02:04:58;6.85;;;6.18;;
79137;SDS011;68544;45.566;10.238;2023-08-17T02:07:23;8.05;;;6.22;;
79137;SDS011;68544;45.566;10.238;2023-08-17T02:09:48;7.22;;;6.38;;
79137;SDS011;68544;45.566;10.238;2023-08-17T02:12:14;7.18;;;6.35;;
79137;SDS011;68544;45.566;10.238;2023-08-17T02:14:39;7.15;;;6.55;;
79137;SDS011;68544;45.566;10.238;2023-08-17T02:17:05;7.80;;;7.03;;
79137;SDS011;68544;45.566;10.238;2023-08-17T02:19:31;9.57;;;7.50;;
79137;SDS011;68544;45.566;10.238;2023-08-17T02:21:57;7.30;;;6.60;;
79137;SDS011;68544;45.566;10.238;2023-08-17T02:24:23;9.88;;;6.65;;
79137;SDS011;68544;45.566;10.238;2023-08-17T02:26:49;8.13;;;6.93;;
79137;SDS011;68544;45.566;10.238;2023-08-17T02:29:14;8.32;;;7.05;;
79137;SDS011;68544;45.566;10.238;2023-08-17T02:31:39;7.45;;;6.85;;
79137;SDS011;68544;45.566;10.238;2023-08-17T02:34:05;8.32;;;7.07;;
79137;SDS011;68544;45.566;10.238;2023-08-17T02:36:33;7.18;;;6.57;;
79137;SDS011;68544;45.566;10.238;2023-08-17T02:38:58;7.15;;;6.50;;
79137;SDS011;68544;45.566;10.238;2023-08-17T02:41:24;7.00;;;6.40;;
79137;SDS011;68544;45.566;10.238;2023-08-17T02:43:49;7.63;;;6.80;;
79137;SDS011;68544;45.566;10.238;2023-08-17T02:46:15;8.30;;;7.60;;
79137;SDS011;68544;45.566;10.238;2023-08-17T02:48:40;8.73;;;7.18;;
79137;SDS011;68544;45.566;10.238;2023-08-17T02:51:05;8.45;;;6.80;;
79137;SDS011;68544;45.566;10.238;2023-08-17T02:53:31;7.43;;;6.63;;
79137;SDS011;68544;45.566;10.238;2023-08-17T02:55:56;8.10;;;7.40;;
79137;SDS011;68544;45.566;10.238;2023-08-17T02:58:22;8.20;;;7.20;;
79137;SDS011;68544;45.566;10.238;2023-08-17T03:00:47;8.10;;;7.40;;
79137;SDS011;68544;45.566;10.238;2023-08-17T03:03:15;7.65;;;7.03;;
79137;SDS011;68544;45.566;10.238;2023-08-17T03:05:41;7.60;;;6.82;;
79137;SDS011;68544;45.566;10.238;2023-08-17T03:08:06;8.63;;;7.10;;
79137;SDS011;68544;45.566;10.238;2023-08-17T03:10:31;7.80;;;7.00;;
79137;SDS011;68544;45.566;10.238;2023-08-17T03:12:57;7.30;;;6.57;;
79137;SDS011;68544;45.566;10.238;2023-08-17T03:15:22;8.32;;;7.50;;
79137;SDS011;68544;45.566;10.238;2023-08-17T03:17:48;7.90;;;7.10;;
79137;SDS011;68544;45.566;10.238;2023-08-17T03:20:13;8.25;;;7.55;;
79137;SDS011;68544;45.566;10.238;2023-08-17T03:22:38;7.75;;;7.00;;
79137;SDS011;68544;45.566;10.238;2023-08-17T03:25:04;7.65;;;7.03;;
79137;SDS011;68544;45.566;10.238;2023-08-17T03:27:30;8.50;;;7.70;;
79137;SDS011;68544;45.566;10.238;2023-08-17T03:29:55;7.45;;;6.85;;
79137;SDS011;68544;45.566;10.238;2023-08-17T03:32:21;8.27;;;7.53;;
79137;SDS011;68544;45.566;10.238;2023-08-17T03:34:46;7.32;;;6.72;;
79137;SDS011;68544;45.566;10.238;2023-08-17T03:37:11;8.50;;;7.65;;
79137;SDS011;68544;45.566;10.238;2023-08-17T03:39:37;7.63;;;6.97;;
79137;SDS011;68544;45.566;10.238;2023-08-17T03:42:02;7.90;;;7.20;;
79137;SDS011;68544;45.566;10.238;2023-08-17T03:44:28;9.82;;;8.10;;
79137;SDS011;68544;45.566;10.238;2023-08-17T03:46:53;7.93;;;7.22;;
79137;SDS011;68544;45.566;10.238;2023-08-17T03:49:19;8.63;;;7.85;;
79137;SDS011;68544;45.566;10.238;2023-08-17T03:51:44;7.82;;;7.22;;
79137;SDS011;68544;45.566;10.238;2023-08-17T03:54:11;7.60;;;7.00;;
79137;SDS011;68544;45.566;10.238;2023-08-17T03:56:37;8.27;;;7.47;;
79137;SDS011;68544;45.566;10.238;2023-08-17T03:59:03;7.72;;;7.05;;
79137;SDS011;68544;45.566;10.238;2023-08-17T04:01:29;7.85;;;7.15;;
79137;SDS011;68544;45.566;10.238;2023-08-17T04:03:54;8.00;;;7.20;;
79137;SDS011;68544;45.566;10.238;2023-08-17T04:06:20;9.32;;;7.60;;
79137;SDS011;68544;45.566;10.238;2023-08-17T04:08:45;7.65;;;6.82;;
79137;SDS011;68544;45.566;10.238;2023-08-17T04:11:11;7.85;;;7.13;;
79137;SDS011;68544;45.566;10.238;2023-08-17T04:13:36;8.30;;;7.50;;
79137;SDS011;68544;45.566;10.238;2023-08-17T04:16:01;8.10;;;7.30;;
79137;SDS011;68544;45.566;10.238;2023-08-17T04:18:27;8.38;;;7.57;;
79137;SDS011;68544;45.566;10.238;2023-08-17T04:20:52;8.18;;;7.50;;
79137;SDS011;68544;45.566;10.238;2023-08-17T04:23:18;8.43;;;7.55;;
79137;SDS011;68544;45.566;10.238;2023-08-17T04:25:43;8.10;;;7.40;;
79137;SDS011;68544;45.566;10.238;2023-08-17T04:28:09;8.25;;;7.50;;
79137;SDS011;68544;45.566;10.238;2023-08-17T04:30:34;9.10;;;7.90;;
79137;SDS011;68544;45.566;10.238;2023-08-17T04:33:00;9.80;;;7.85;;
79137;SDS011;68544;45.566;10.238;2023-08-17T04:35:25;8.45;;;7.82;;
79137;SDS011;68544;45.566;10.238;2023-08-17T04:37:51;8.10;;;7.32;;
79137;SDS011;68544;45.566;10.238;2023-08-17T04:40:16;8.90;;;7.80;;
79137;SDS011;68544;45.566;10.238;2023-08-17T04:42:41;7.80;;;7.15;;
79137;SDS011;68544;45.566;10.238;2023-08-17T04:45:07;8.25;;;7.53;;
79137;SDS011;68544;45.566;10.238;2023-08-17T04:47:33;8.55;;;7.25;;
79137;SDS011;68544;45.566;10.238;2023-08-17T04:49:58;8.25;;;7.53;;
79137;SDS011;68544;45.566;10.238;2023-08-17T04:52:24;8.25;;;7.55;;
79137;SDS011;68544;45.566;10.238;2023-08-17T04:54:49;8.18;;;7.57;;
79137;SDS011;68544;45.566;10.238;2023-08-17T04:57:15;8.10;;;7.20;;
79137;SDS011;68544;45.566;10.238;2023-08-17T04:59:40;7.93;;;7.22;;
79137;SDS011;68544;45.566;10.238;2023-08-17T05:02:05;9.32;;;7.00;;
79137;SDS011;68544;45.566;10.238;2023-08-17T05:04:31;8.02;;;7.25;;
79137;SDS011;68544;45.566;10.238;2023-08-17T05:06:56;7.50;;;6.82;;
79137;SDS011;68544;45.566;10.238;2023-08-17T05:09:22;8.45;;;7.20;;
79137;SDS011;68544;45.566;10.238;2023-08-17T05:11:47;10.48;;;7.47;;
79137;SDS011;68544;45.566;10.238;2023-08-17T05:14:13;7.68;;;7.07;;
79137;SDS011;68544;45.566;10.238;2023-08-17T05:16:38;11.82;;;7.28;;
79137;SDS011;68544;45.566;10.238;2023-08-17T05:19:03;7.47;;;6.82;;
79137;SDS011;68544;45.566;10.238;2023-08-17T05:21:29;8.43;;;7.65;;
79137;SDS011;68544;45.566;10.238;2023-08-17T05:23:55;8.10;;;7.10;;
79137;SDS011;68544;45.566;10.238;2023-08-17T05:26:21;6.90;;;6.30;;
79137;SDS011;68544;45.566;10.238;2023-08-17T05:28:47;9.07;;;6.90;;
79137;SDS011;68544;45.566;10.238;2023-08-17T05:31:12;7.53;;;6.60;;
79137;SDS011;68544;45.566;10.238;2023-08-17T05:33:38;7.78;;;7.15;;
79137;SDS011;68544;45.566;10.238;2023-08-17T05:36:06;10.02;;;7.38;;
79137;SDS011;68544;45.566;10.238;2023-08-17T05:38:32;9.10;;;7.07;;
79137;SDS011;68544;45.566;10.238;2023-08-17T05:40:57;7.85;;;6.85;;
79137;SDS011;68544;45.566;10.238;2023-08-17T05:43:24;7.50;;;6.80;;
79137;SDS011;68544;45.566;10.238;2023-08-17T05:45:50;8.25;;;7.40;;
79137;SDS011;68544;45.566;10.238;2023-08-17T05:48:15;9.00;;;7.35;;
79137;SDS011;68544;45.566;10.238;2023-08-17T05:50:42;8.20;;;6.95;;
79137;SDS011;68544;45.566;10.238;2023-08-17T05:53:08;9.75;;;6.80;;
79137;SDS011;68544;45.566;10.238;2023-08-17T05:55:33;8.05;;;6.90;;
79137;SDS011;68544;45.566;10.238;2023-08-17T05:57:58;7.88;;;6.78;;
79137;SDS011;68544;45.566;10.238;2023-08-17T06:00:24;7.57;;;6.85;;
79137;SDS011;68544;45.566;10.238;2023-08-17T06:02:49;9.15;;;7.15;;
79137;SDS011;68544;45.566;10.238;2023-08-17T06:05:16;7.80;;;7.00;;
79137;SDS011;68544;45.566;10.238;2023-08-17T06:07:42;9.20;;;7.25;;
79137;SDS011;68544;45.566;10.238;2023-08-17T06:10:08;7.85;;;7.05;;
79137;SDS011;68544;45.566;10.238;2023-08-17T06:12:35;9.75;;;7.22;;
79137;SDS011;68544;45.566;10.238;2023-08-17T06:15:04;7.32;;;6.63;;
79137;SDS011;68544;45.566;10.238;2023-08-17T06:17:30;7.45;;;6.85;;
79137;SDS011;68544;45.566;10.238;2023-08-17T06:19:55;7.93;;;7.07;;
79137;SDS011;68544;45.566;10.238;2023-08-17T06:22:21;8.02;;;6.80;;
79137;SDS011;68544;45.566;10.238;2023-08-17T06:24:46;7.78;;;6.93;;
79137;SDS011;68544;45.566;10.238;2023-08-17T06:27:13;7.70;;;6.97;;
79137;SDS011;68544;45.566;10.238;2023-08-17T06:29:40;7.05;;;6.28;;
79137;SDS011;68544;45.566;10.238;2023-08-17T06:32:05;9.75;;;6.78;;
79137;SDS011;68544;45.566;10.238;2023-08-17T06:34:31;11.32;;;7.10;;
79137;SDS011;68544;45.566;10.238;2023-08-17T06:36:57;7.63;;;6.32;;
79137;SDS011;68544;45.566;10.238;2023-08-17T06:39:24;7.32;;;6.72;;
79137;SDS011;68544;45.566;10.238;2023-08-17T06:41:49;8.25;;;7.40;;
79137;SDS011;68544;45.566;10.238;2023-08-17T06:44:15;10.40;;;7.85;;
79137;SDS011;68544;45.566;10.238;2023-08-17T06:46:40;8.75;;;8.00;;
79137;SDS011;68544;45.566;10.238;2023-08-17T06:49:05;8.43;;;7.57;;
79137;SDS011;68544;45.566;10.238;2023-08-17T06:51:31;13.88;;;8.65;;
79137;SDS011;68544;45.566;10.238;2023-08-17T06:53:56;9.73;;;8.27;;
79137;SDS011;68544;45.566;10.238;2023-08-17T06:56:22;8.68;;;7.82;;
79137;SDS011;68544;45.566;10.238;2023-08-17T06:58:48;8.32;;;7.55;;
79137;SDS011;68544;45.566;10.238;2023-08-17T07:01:13;7.45;;;6.75;;
79137;SDS011;68544;45.566;10.238;2023-08-17T07:03:39;8.10;;;7.32;;
79137;SDS011;68544;45.566;10.238;2023-08-17T07:06:05;11.02;;;7.72;;
79137;SDS011;68544;45.566;10.238;2023-08-17T07:08:30;10.13;;;8.18;;
79137;SDS011;68544;45.566;10.238;2023-08-17T07:10:56;8.57;;;7.68;;
79137;SDS011;68544;45.566;10.238;2023-08-17T07:13:21;10.85;;;6.97;;
79137;SDS011;68544;45.566;10.238;2023-08-17T07:15:46;10.13;;;7.60;;
79137;SDS011;68544;45.566;10.238;2023-08-17T07:18:12;8.85;;;7.00;;
79137;SDS011;68544;45.566;10.238;2023-08-17T07:20:37;7.82;;;7.18;;
79137;SDS011;68544;45.566;10.238;2023-08-17T07:23:02;8.65;;;7.85;;
79137;SDS011;68544;45.566;10.238;2023-08-17T07:25:28;8.02;;;7.22;;
79137;SDS011;68544;45.566;10.238;2023-08-17T07:27:54;10.20;;;6.78;;
79137;SDS011;68544;45.566;10.238;2023-08-17T07:30:19;8.13;;;6.50;;
79137;SDS011;68544;45.566;10.238;2023-08-17T07:32:44;7.65;;;6.80;;
79137;SDS011;68544;45.566;10.238;2023-08-17T07:35:10;6.90;;;6.30;;
79137;SDS011;68544;45.566;10.238;2023-08-17T07:37:35;8.13;;;6.30;;
79137;SDS011;68544;45.566;10.238;2023-08-17T07:40:01;8.95;;;6.40;;
79137;SDS011;68544;45.566;10.238;2023-08-17T07:42:28;7.60;;;6.80;;
79137;SDS011;68544;45.566;10.238;2023-08-17T07:44:54;11.35;;;7.93;;
79137;SDS011;68544;45.566;10.238;2023-08-17T07:47:19;7.28;;;6.57;;
79137;SDS011;68544;45.566;10.238;2023-08-17T07:49:44;7.53;;;6.63;;
79137;SDS011;68544;45.566;10.238;2023-08-17T07:52:10;9.13;;;6.57;;
79137;SDS011;68544;45.566;10.238;2023-08-17T07:54:35;8.30;;;6.50;;
79137;SDS011;68544;45.566;10.238;2023-08-17T07:57:02;8.73;;;6.88;;
79137;SDS011;68544;45.566;10.238;2023-08-17T07:59:28;7.55;;;6.68;;
79137;SDS011;68544;45.566;10.238;2023-08-17T08:01:54;9.23;;;7.30;;
79137;SDS011;68544;45.566;10.238;2023-08-17T08:04:19;7.13;;;6.50;;
79137;SDS011;68544;45.566;10.238;2023-08-17T08:06:45;7.32;;;6.68;;
79137;SDS011;68544;45.566;10.238;2023-08-17T08:09:11;8.02;;;7.22;;
79137;SDS011;68544;45.566;10.238;2023-08-17T08:11:37;7.55;;;6.85;;
79137;SDS011;68544;45.566;10.238;2023-08-17T08:14:02;7.35;;;6.53;;
79137;SDS011;68544;45.566;10.238;2023-08-17T08:16:28;9.18;;;6.65;;
79137;SDS011;68544;45.566;10.238;2023-08-17T08:18:56;6.30;;;5.70;;
79137;SDS011;68544;45.566;10.238;2023-08-17T08:21:22;7.18;;;5.82;;
79137;SDS011;68544;45.566;10.238;2023-08-17T08:23:47;7.70;;;6.43;;
79137;SDS011;68544;45.566;10.238;2023-08-17T08:26:13;7.97;;;5.72;;
79137;SDS011;68544;45.566;10.238;2023-08-17T08:28:39;7.70;;;5.75;;
79137;SDS011;68544;45.566;10.238;2023-08-17T08:31:04;7.97;;;5.50;;
79137;SDS011;68544;45.566;10.238;2023-08-17T08:33:30;7.85;;;5.82;;
79137;SDS011;68544;45.566;10.238;2023-08-17T08:35:55;6.88;;;6.05;;
79137;SDS011;68544;45.566;10.238;2023-08-17T08:38:21;8.40;;;5.95;;
79137;SDS011;68544;45.566;10.238;2023-08-17T08:40:47;7.15;;;5.68;;
79137;SDS011;68544;45.566;10.238;2023-08-17T08:43:13;7.63;;;6.53;;
79137;SDS011;68544;45.566;10.238;2023-08-17T08:45:40;7.28;;;6.50;;
79137;SDS011;68544;45.566;10.238;2023-08-17T08:48:07;6.25;;;5.68;;
79137;SDS011;68544;45.566;10.238;2023-08-17T08:50:35;8.23;;;6.00;;
79137;SDS011;68544;45.566;10.238;2023-08-17T08:53:02;8.80;;;6.22;;
79137;SDS011;68544;45.566;10.238;2023-08-17T08:55:37;7.80;;;5.95;;
79137;SDS011;68544;45.566;10.238;2023-08-17T08:58:04;7.72;;;6.05;;
79137;SDS011;68544;45.566;10.238;2023-08-17T09:00:30;8.70;;;5.97;;
79137;SDS011;68544;45.566;10.238;2023-08-17T09:02:58;7.28;;;6.22;;
79137;SDS011;68544;45.566;10.238;2023-08-17T09:05:24;7.35;;;5.90;;
79137;SDS011;68544;45.566;10.238;2023-08-17T09:07:50;7.97;;;5.68;;
79137;SDS011;68544;45.566;10.238;2023-08-17T09:10:17;6.38;;;5.78;;
79137;SDS011;68544;45.566;10.238;2023-08-17T09:12:45;7.25;;;5.68;;
79137;SDS011;68544;45.566;10.238;2023-08-17T09:15:11;7.38;;;5.78;;
79137;SDS011;68544;45.566;10.238;2023-08-17T09:17:37;8.25;;;5.63;;
79137;SDS011;68544;45.566;10.238;2023-08-17T09:20:03;7.53;;;5.72;;
79137;SDS011;68544;45.566;10.238;2023-08-17T09:22:41;9.55;;;5.40;;
79137;SDS011;68544;45.566;10.238;2023-08-17T09:25:11;6.90;;;5.65;;
79137;SDS011;68544;45.566;10.238;2023-08-17T09:27:47;9.55;;;6.35;;
79137;SDS011;68544;45.566;10.238;2023-08-17T09:30:13;8.70;;;6.00;;
79137;SDS011;68544;45.566;10.238;2023-08-17T09:32:38;7.00;;;5.55;;
79137;SDS011;68544;45.566;10.238;2023-08-17T09:35:04;6.72;;;6.00;;
79137;SDS011;68544;45.566;10.238;2023-08-17T09:37:31;6.35;;;5.72;;
79137;SDS011;68544;45.566;10.238;2023-08-17T09:39:57;5.88;;;5.25;;
79137;SDS011;68544;45.566;10.238;2023-08-17T09:42:23;6.18;;;5.57;;
79137;SDS011;68544;45.566;10.238;2023-08-17T09:44:50;7.75;;;5.70;;
79137;SDS011;68544;45.566;10.238;2023-08-17T09:47:19;6.53;;;5.88;;
79137;SDS011;68544;45.566;10.238;2023-08-17T09:49:52;7.63;;;5.53;;
79137;SDS011;68544;45.566;10.238;2023-08-17T09:52:22;6.35;;;5.65;;
79137;SDS011;68544;45.566;10.238;2023-08-17T09:54:51;6.15;;;5.55;;
79137;SDS011;68544;45.566;10.238;2023-08-17T09:57:19;7.07;;;5.43;;
79137;SDS011;68544;45.566;10.238;2023-08-17T09:59:46;7.95;;;5.85;;
79137;SDS011;68544;45.566;10.238;2023-08-17T10:02:18;5.60;;;5.10;;
79137;SDS011;68544;45.566;10.238;2023-08-17T10:04:47;7.50;;;5.00;;
79137;SDS011;68544;45.566;10.238;2023-08-17T10:07:16;5.65;;;5.07;;
79137;SDS011;68544;45.566;10.238;2023-08-17T10:09:44;6.65;;;5.55;;
79137;SDS011;68544;45.566;10.238;2023-08-17T10:12:15;5.95;;;4.85;;
79137;SDS011;68544;45.566;10.238;2023-08-17T10:14:45;7.43;;;6.35;;
79137;SDS011;68544;45.566;10.238;2023-08-17T10:17:19;6.30;;;5.70;;
79137;SDS011;68544;45.566;10.238;2023-08-17T10:19:59;9.32;;;6.40;;
79137;SDS011;68544;45.566;10.238;2023-08-17T10:22:27;6.28;;;5.60;;
79137;SDS011;68544;45.566;10.238;2023-08-17T10:24:58;6.30;;;5.68;;
79137;SDS011;68544;45.566;10.238;2023-08-17T10:27:26;8.93;;;5.22;;
79137;SDS011;68544;45.566;10.238;2023-08-17T10:29:51;6.43;;;5.70;;
79137;SDS011;68544;45.566;10.238;2023-08-17T10:32:17;7.63;;;5.47;;
79137;SDS011;68544;45.566;10.238;2023-08-17T10:34:46;8.15;;;5.22;;
79137;SDS011;68544;45.566;10.238;2023-08-17T10:37:12;6.22;;;5.63;;
79137;SDS011;68544;45.566;10.238;2023-08-17T10:39:44;5.72;;;5.20;;
79137;SDS011;68544;45.566;10.238;2023-08-17T10:42:13;6.07;;;5.35;;
79137;SDS011;68544;45.566;10.238;2023-08-17T10:49:51;7.47;;;5.72;;
79137;SDS011;68544;45.566;10.238;2023-08-17T10:52:25;6.97;;;5.88;;
79137;SDS011;68544;45.566;10.238;2023-08-17T10:54:52;6.30;;;5.65;;
79137;SDS011;68544;45.566;10.238;2023-08-17T11:02:33;7.50;;;5.70;;
79137;SDS011;68544;45.566;10.238;2023-08-17T11:05:00;9.20;;;5.72;;
79137;SDS011;68544;45.566;10.238;2023-08-17T11:07:26;6.65;;;5.60;;
79137;SDS011;68544;45.566;10.238;2023-08-17T11:09:55;7.05;;;5.50;;
79137;SDS011;68544;45.566;10.238;2023-08-17T11:12:26;8.43;;;5.38;;
79137;SDS011;68544;45.566;10.238;2023-08-17T11:14:51;6.13;;;5.57;;
79137;SDS011;68544;45.566;10.238;2023-08-17T11:17:20;7.43;;;5.70;;
79137;SDS011;68544;45.566;10.238;2023-08-17T11:19:46;8.02;;;5.60;;
79137;SDS011;68544;45.566;10.238;2023-08-17T11:22:11;6.45;;;5.25;;
79137;SDS011;68544;45.566;10.238;2023-08-17T11:24:37;6.20;;;5.30;;
79137;SDS011;68544;45.566;10.238;2023-08-17T11:27:05;8.05;;;5.80;;
79137;SDS011;68544;45.566;10.238;2023-08-17T11:29:31;5.97;;;5.38;;
79137;SDS011;68544;45.566;10.238;2023-08-17T11:31:58;6.40;;;5.72;;
79137;SDS011;68544;45.566;10.238;2023-08-17T11:34:23;7.55;;;5.30;;
79137;SDS011;68544;45.566;10.238;2023-08-17T11:36:49;6.90;;;5.70;;
79137;SDS011;68544;45.566;10.238;2023-08-17T11:39:14;5.63;;;5.03;;
79137;SDS011;68544;45.566;10.238;2023-08-17T11:41:40;8.00;;;5.28;;
79137;SDS011;68544;45.566;10.238;2023-08-17T11:44:05;9.90;;;5.00;;
79137;SDS011;68544;45.566;10.238;2023-08-17T11:46:32;5.85;;;4.97;;
79137;SDS011;68544;45.566;10.238;2023-08-17T11:49:00;6.50;;;5.30;;
79137;SDS011;68544;45.566;10.238;2023-08-17T11:51:31;7.20;;;4.78;;
79137;SDS011;68544;45.566;10.238;2023-08-17T11:54:00;7.10;;;4.07;;
79137;SDS011;68544;45.566;10.238;2023-08-17T11:56:28;5.93;;;5.05;;
79137;SDS011;68544;45.566;10.238;2023-08-17T11:58:53;5.22;;;4.72;;
79137;SDS011;68544;45.566;10.238;2023-08-17T12:01:18;7.20;;;4.82;;
79137;SDS011;68544;45.566;10.238;2023-08-17T12:03:44;5.32;;;4.65;;
79137;SDS011;68544;45.566;10.238;2023-08-17T12:06:10;8.88;;;5.75;;
79137;SDS011;68544;45.566;10.238;2023-08-17T12:08:37;9.50;;;4.82;;
79137;SDS011;68544;45.566;10.238;2023-08-17T12:11:03;6.18;;;5.00;;
79137;SDS011;68544;45.566;10.238;2023-08-17T12:13:29;6.03;;;5.03;;
79137;SDS011;68544;45.566;10.238;2023-08-17T12:15:59;7.57;;;4.97;;
79137;SDS011;68544;45.566;10.238;2023-08-17T12:18:25;5.50;;;5.00;;
79137;SDS011;68544;45.566;10.238;2023-08-17T12:20:53;6.07;;;4.93;;
79137;SDS011;68544;45.566;10.238;2023-08-17T12:23:20;7.35;;;5.03;;
79137;SDS011;68544;45.566;10.238;2023-08-17T12:25:45;6.15;;;5.55;;
79137;SDS011;68544;45.566;10.238;2023-08-17T12:28:13;5.55;;;5.03;;
79137;SDS011;68544;45.566;10.238;2023-08-17T12:30:39;6.78;;;5.15;;
79137;SDS011;68544;45.566;10.238;2023-08-17T12:33:05;6.40;;;4.93;;
79137;SDS011;68544;45.566;10.238;2023-08-17T12:35:31;6.40;;;5.20;;
79137;SDS011;68544;45.566;10.238;2023-08-17T12:37:57;5.53;;;5.03;;
79137;SDS011;68544;45.566;10.238;2023-08-17T12:40:23;6.13;;;5.22;;
79137;SDS011;68544;45.566;10.238;2023-08-17T12:42:48;6.18;;;5.57;;
79137;SDS011;68544;45.566;10.238;2023-08-17T12:45:14;6.78;;;6.18;;
79137;SDS011;68544;45.566;10.238;2023-08-17T12:47:40;7.72;;;5.22;;
79137;SDS011;68544;45.566;10.238;2023-08-17T12:50:06;7.50;;;5.47;;
79137;SDS011;68544;45.566;10.238;2023-08-17T12:52:31;6.63;;;5.10;;
79137;SDS011;68544;45.566;10.238;2023-08-17T12:54:57;9.43;;;5.70;;
79137;SDS011;68544;45.566;10.238;2023-08-17T12:57:22;6.68;;;6.07;;
79137;SDS011;68544;45.566;10.238;2023-08-17T12:59:48;6.78;;;6.18;;
79137;SDS011;68544;45.566;10.238;2023-08-17T13:02:13;6.60;;;5.03;;
79137;SDS011;68544;45.566;10.238;2023-08-17T13:04:39;7.85;;;5.75;;
79137;SDS011;68544;45.566;10.238;2023-08-17T13:07:05;6.95;;;5.68;;
79137;SDS011;68544;45.566;10.238;2023-08-17T13:09:30;8.90;;;5.97;;
79137;SDS011;68544;45.566;10.238;2023-08-17T13:11:56;6.60;;;6.00;;
79137;SDS011;68544;45.566;10.238;2023-08-17T13:14:21;10.10;;;5.70;;
79137;SDS011;68544;45.566;10.238;2023-08-17T13:16:48;5.90;;;5.40;;
79137;SDS011;68544;45.566;10.238;2023-08-17T13:19:14;6.68;;;5.50;;
79137;SDS011;68544;45.566;10.238;2023-08-17T13:21:39;6.32;;;5.70;;
79137;SDS011;68544;45.566;10.238;2023-08-17T13:24:05;6.38;;;5.78;;
79137;SDS011;68544;45.566;10.238;2023-08-17T13:26:30;5.80;;;5.18;;
79137;SDS011;68544;45.566;10.238;2023-08-17T13:28:57;5.78;;;5.22;;
79137;SDS011;68544;45.566;10.238;2023-08-17T13:31:22;6.63;;;5.93;;
79137;SDS011;68544;45.566;10.238;2023-08-17T13:33:48;5.93;;;5.40;;
79137;SDS011;68544;45.566;10.238;2023-08-17T13:36:13;8.00;;;5.65;;
79137;SDS011;68544;45.566;10.238;2023-08-17T13:38:38;7.35;;;5.80;;
79137;SDS011;68544;45.566;10.238;2023-08-17T13:41:04;6.63;;;5.95;;
79137;SDS011;68544;45.566;10.238;2023-08-17T13:43:29;6.65;;;5.32;;
79137;SDS011;68544;45.566;10.238;2023-08-17T13:45:55;5.78;;;5.32;;
79137;SDS011;68544;45.566;10.238;2023-08-17T13:48:21;5.78;;;5.18;;
79137;SDS011;68544;45.566;10.238;2023-08-17T13:50:46;7.82;;;5.18;;
79137;SDS011;68544;45.566;10.238;2023-08-17T13:53:12;5.95;;;5.35;;
79137;SDS011;68544;45.566;10.238;2023-08-17T13:55:37;6.85;;;5.65;;
79137;SDS011;68544;45.566;10.238;2023-08-17T13:58:03;6.75;;;6.10;;
79137;SDS011;68544;45.566;10.238;2023-08-17T14:00:28;6.82;;;5.30;;
79137;SDS011;68544;45.566;10.238;2023-08-17T14:02:54;9.25;;;5.90;;
79137;SDS011;68544;45.566;10.238;2023-08-17T14:05:19;6.63;;;5.55;;
79137;SDS011;68544;45.566;10.238;2023-08-17T14:07:45;6.65;;;5.32;;
79137;SDS011;68544;45.566;10.238;2023-08-17T14:10:12;6.10;;;5.50;;
79137;SDS011;68544;45.566;10.238;2023-08-17T14:12:39;6.68;;;5.97;;
79137;SDS011;68544;45.566;10.238;2023-08-17T14:15:04;8.65;;;6.22;;
79137;SDS011;68544;45.566;10.238;2023-08-17T14:17:30;7.43;;;5.55;;
79137;SDS011;68544;45.566;10.238;2023-08-17T14:19:55;5.82;;;5.30;;
79137;SDS011;68544;45.566;10.238;2023-08-17T14:22:21;6.80;;;5.70;;
79137;SDS011;68544;45.566;10.238;2023-08-17T14:24:46;6.25;;;5.38;;
79137;SDS011;68544;45.566;10.238;2023-08-17T14:27:12;7.20;;;5.38;;
79137;SDS011;68544;45.566;10.238;2023-08-17T14:29:38;5.28;;;4.88;;
79137;SDS011;68544;45.566;10.238;2023-08-17T14:32:03;8.13;;;5.85;;
79137;SDS011;68544;45.566;10.238;2023-08-17T14:34:29;7.10;;;5.20;;
79137;SDS011;68544;45.566;10.238;2023-08-17T14:36:54;6.00;;;5.00;;